createdAt,value
2023-03-12T00:00:25.738Z,1008.33
2023-03-12T00:01:27.721Z,1008.33
2023-03-12T00:02:25.927Z,1008.32
2023-03-12T00:03:25.901Z,1008.35
2023-03-12T00:04:25.853Z,1008.36
2023-03-12T00:05:26.142Z,1008.34
2023-03-12T00:06:25.906Z,1008.31
2023-03-12T00:07:25.938Z,1008.30
2023-03-12T00:08:26.072Z,1008.29
2023-03-12T00:09:26.009Z,1008.28
2023-03-12T00:10:26.020Z,1008.27
2023-03-12T00:11:26.056Z,1008.22
2023-03-12T00:12:26.091Z,1008.21
2023-03-12T00:13:26.107Z,1008.19
2023-03-12T00:14:26.131Z,1008.16
2023-03-12T00:15:26.170Z,1008.17
2023-03-12T00:16:26.267Z,1008.15
2023-03-12T00:17:26.222Z,1008.15
2023-03-12T00:18:26.248Z,1008.16
2023-03-12T00:19:26.265Z,1008.15
2023-03-12T00:20:26.352Z,1008.15
2023-03-12T00:21:26.322Z,1008.13
2023-03-12T00:22:26.351Z,1008.12
2023-03-12T00:23:26.382Z,1008.14
2023-03-12T00:24:26.697Z,1008.12
2023-03-12T00:25:26.426Z,1008.16
2023-03-12T00:26:26.459Z,1008.16
2023-03-12T00:27:26.484Z,1008.14
2023-03-12T00:28:26.530Z,1008.17
2023-03-12T00:29:26.540Z,1008.12
2023-03-12T00:30:26.566Z,1008.09
2023-03-12T00:31:26.665Z,1008.11
2023-03-12T00:32:26.660Z,1008.11
2023-03-12T00:33:26.652Z,1008.09
2023-03-12T00:34:26.677Z,1008.09
2023-03-12T00:35:26.762Z,1008.12
2023-03-12T00:36:26.742Z,1008.09
2023-03-12T00:37:26.761Z,1008.11
2023-03-12T00:38:26.784Z,1008.08
2023-03-12T00:39:26.812Z,1008.05
2023-03-12T00:40:26.843Z,1008.10
2023-03-12T00:41:26.872Z,1008.09
2023-03-12T00:42:26.892Z,1008.05
2023-03-12T00:43:26.920Z,1008.06
2023-03-12T00:44:26.968Z,1008.09
2023-03-12T00:45:26.982Z,1008.06
2023-03-12T00:46:27.075Z,1008.03
2023-03-12T00:47:27.029Z,1008.01
2023-03-12T00:48:27.082Z,1008.06
2023-03-12T00:49:27.364Z,1008.04
2023-03-12T00:50:27.107Z,1008.01
2023-03-12T00:51:27.189Z,1007.98
2023-03-12T00:52:27.166Z,1007.97
2023-03-12T00:53:27.208Z,1007.96
2023-03-12T00:55:27.250Z,1007.92
2023-03-12T00:56:27.280Z,1007.88
2023-03-12T00:57:27.295Z,1007.87
2023-03-12T00:58:27.332Z,1007.84
2023-03-12T00:59:27.354Z,1007.88
2023-03-12T01:00:27.507Z,1007.86
2023-03-12T01:01:27.420Z,1007.88
2023-03-12T01:02:27.467Z,1007.88
2023-03-12T01:03:27.469Z,1007.87
2023-03-12T01:04:27.701Z,1007.85
2023-03-12T01:05:27.520Z,1007.87
2023-03-12T01:06:27.558Z,1007.89
2023-03-12T01:07:27.677Z,1007.90
2023-03-12T01:08:27.704Z,1007.88
2023-03-12T01:10:27.669Z,1007.90
2023-03-12T01:11:27.697Z,1007.89
2023-03-12T01:12:27.719Z,1007.86
2023-03-12T01:13:28.000Z,1007.83
2023-03-12T01:14:27.772Z,1007.87
2023-03-12T01:15:27.899Z,1007.83
2023-03-12T01:16:27.855Z,1007.84
2023-03-12T01:17:27.850Z,1007.79
2023-03-12T01:18:27.888Z,1007.82
2023-03-12T01:19:27.906Z,1007.83
2023-03-12T01:20:27.943Z,1007.75
2023-03-12T01:21:27.960Z,1007.76
2023-03-12T01:22:27.987Z,1007.72
2023-03-12T01:23:28.025Z,1007.71
2023-03-12T01:24:28.042Z,1007.70
2023-03-12T01:25:28.073Z,1007.70
2023-03-12T01:26:28.098Z,1007.70
2023-03-12T01:27:28.131Z,1007.64
2023-03-12T01:28:28.152Z,1007.64
2023-03-12T01:29:28.182Z,1007.64
2023-03-12T01:30:28.206Z,1007.61
2023-03-12T01:31:28.512Z,1007.64
2023-03-12T01:32:28.341Z,1007.57
2023-03-12T01:34:28.320Z,1007.60
2023-03-12T01:35:28.406Z,1007.58
2023-03-12T01:36:28.448Z,1007.58
2023-03-12T01:37:28.405Z,1007.55
2023-03-12T01:38:28.431Z,1007.53
2023-03-12T01:39:28.459Z,1007.53
2023-03-12T01:40:28.475Z,1007.56
2023-03-12T01:41:28.507Z,1007.53
2023-03-12T01:42:28.533Z,1007.55
2023-03-12T01:43:28.569Z,1007.52
2023-03-12T01:44:28.587Z,1007.51
2023-03-12T01:45:28.642Z,1007.49
2023-03-12T01:46:28.649Z,1007.53
2023-03-12T01:47:28.673Z,1007.53
2023-03-12T01:48:28.712Z,1007.54
2023-03-12T01:49:28.728Z,1007.54
2023-03-12T01:50:28.749Z,1007.54
2023-03-12T01:51:28.778Z,1007.51
2023-03-12T01:52:28.809Z,1007.48
2023-03-12T01:53:28.835Z,1007.45
2023-03-12T01:54:28.865Z,1007.40
2023-03-12T01:55:28.883Z,1007.30
2023-03-12T01:56:29.209Z,1007.25
2023-03-12T01:57:28.936Z,1007.13
2023-03-12T01:58:28.968Z,1007.12
2023-03-12T01:59:28.993Z,1007.10
2023-03-12T02:00:29.023Z,1007.10
2023-03-12T02:01:29.162Z,1007.10
2023-03-12T02:02:29.079Z,1007.08
2023-03-12T02:03:29.104Z,1007.13
2023-03-12T02:04:29.164Z,1007.11
2023-03-12T02:05:29.170Z,1007.07
2023-03-12T02:06:29.182Z,1007.10
2023-03-12T02:07:29.212Z,1007.13
2023-03-12T02:08:29.237Z,1007.08
2023-03-12T02:09:29.275Z,1007.10
2023-03-12T02:10:29.293Z,1007.07
2023-03-12T02:11:29.326Z,1007.08
2023-03-12T02:12:29.346Z,1007.05
2023-03-12T02:13:29.376Z,1007.03
2023-03-12T02:14:29.403Z,1007.03
2023-03-12T02:15:29.427Z,1006.97
2023-03-12T02:16:29.567Z,1006.97
2023-03-12T02:17:29.540Z,1006.92
2023-03-12T02:18:29.514Z,1006.94
2023-03-12T02:19:29.541Z,1006.97
2023-03-12T02:20:29.835Z,1006.98
2023-03-12T02:21:29.591Z,1006.95
2023-03-12T02:22:29.627Z,1006.97
2023-03-12T02:23:29.650Z,1006.99
2023-03-12T02:24:29.674Z,1006.96
2023-03-12T02:25:29.702Z,1007.04
2023-03-12T02:26:29.732Z,1007.01
2023-03-12T02:27:29.761Z,1007.01
2023-03-12T02:28:29.821Z,1007.04
2023-03-12T02:29:29.812Z,1006.98
2023-03-12T02:30:29.845Z,1006.97
2023-03-12T02:31:29.923Z,1006.99
2023-03-12T02:32:29.928Z,1006.97
2023-03-12T02:33:29.926Z,1006.95
2023-03-12T02:34:29.957Z,1006.97
2023-03-12T02:35:29.978Z,1006.96
2023-03-12T02:36:30.027Z,1006.96
2023-03-12T02:37:30.031Z,1007.00
2023-03-12T02:38:30.064Z,1007.00
2023-03-12T02:39:30.388Z,1006.99
2023-03-12T02:40:30.119Z,1006.94
2023-03-12T02:41:30.145Z,1006.97
2023-03-12T02:42:30.166Z,1006.95
2023-03-12T02:43:30.195Z,1006.97
2023-03-12T02:44:30.221Z,1006.91
2023-03-12T02:45:30.256Z,1006.94
2023-03-12T02:46:30.272Z,1006.93
2023-03-12T02:47:30.303Z,1006.94
2023-03-12T02:48:30.337Z,1006.94
2023-03-12T02:49:30.366Z,1006.94
2023-03-12T02:50:30.389Z,1006.94
2023-03-12T02:51:30.420Z,1006.93
2023-03-12T02:52:30.463Z,1006.92
2023-03-12T02:53:30.479Z,1006.91
2023-03-12T02:54:30.495Z,1006.97
2023-03-12T02:55:30.535Z,1006.94
2023-03-12T02:57:30.576Z,1006.93
2023-03-12T02:58:30.710Z,1006.92
2023-03-12T02:59:30.650Z,1006.88
2023-03-12T03:00:30.664Z,1006.85
2023-03-12T03:01:30.713Z,1006.81
2023-03-12T03:02:30.715Z,1006.78
2023-03-12T03:03:30.739Z,1006.78
2023-03-12T03:04:31.148Z,1006.80
2023-03-12T03:05:30.796Z,1006.75
2023-03-12T03:06:30.828Z,1006.79
2023-03-12T03:07:30.849Z,1006.78
2023-03-12T03:08:30.896Z,1006.78
2023-03-12T03:09:31.006Z,1006.78
2023-03-12T03:10:30.930Z,1006.80
2023-03-12T03:11:30.963Z,1006.81
2023-03-12T03:12:30.983Z,1006.77
2023-03-12T03:13:31.042Z,1006.74
2023-03-12T03:14:31.052Z,1006.72
2023-03-12T03:15:31.106Z,1006.70
2023-03-12T03:16:31.093Z,1006.66
2023-03-12T03:17:31.126Z,1006.59
2023-03-12T03:18:31.171Z,1006.59
2023-03-12T03:19:31.212Z,1006.59
2023-03-12T03:20:31.226Z,1006.63
2023-03-12T03:21:31.229Z,1006.59
2023-03-12T03:22:31.259Z,1006.59
2023-03-12T03:23:31.582Z,1006.58
2023-03-12T03:24:31.337Z,1006.55
2023-03-12T03:25:31.338Z,1006.53
2023-03-12T03:26:31.378Z,1006.52
2023-03-12T03:27:31.398Z,1006.53
2023-03-12T03:28:31.423Z,1006.49
2023-03-12T03:29:31.450Z,1006.47
2023-03-12T03:30:31.480Z,1006.45
2023-03-12T03:31:31.528Z,1006.48
2023-03-12T03:32:31.622Z,1006.54
2023-03-12T03:33:31.551Z,1006.59
2023-03-12T03:34:31.580Z,1006.60
2023-03-12T03:35:31.673Z,1006.61
2023-03-12T03:36:31.639Z,1006.64
2023-03-12T03:37:31.659Z,1006.57
2023-03-12T03:38:31.690Z,1006.59
2023-03-12T03:39:31.716Z,1006.57
2023-03-12T03:40:31.766Z,1006.55
2023-03-12T03:41:31.767Z,1006.52
2023-03-12T03:42:31.794Z,1006.55
2023-03-12T03:44:31.856Z,1006.56
2023-03-12T03:45:31.880Z,1006.57
2023-03-12T03:46:31.992Z,1006.58
2023-03-12T03:47:32.193Z,1006.57
2023-03-12T03:48:31.997Z,1006.56
2023-03-12T03:49:31.986Z,1006.53
2023-03-12T03:50:32.010Z,1006.56
2023-03-12T03:51:32.053Z,1006.53
2023-03-12T03:52:32.067Z,1006.54
2023-03-12T03:53:32.108Z,1006.55
2023-03-12T03:54:32.121Z,1006.53
2023-03-12T03:55:32.147Z,1006.55
2023-03-12T03:56:32.231Z,1006.55
2023-03-12T03:57:32.234Z,1006.54
2023-03-12T03:58:32.248Z,1006.51
2023-03-12T04:00:32.595Z,1006.47
2023-03-12T04:01:32.315Z,1006.46
2023-03-12T04:02:32.352Z,1006.40
2023-03-12T04:04:32.391Z,1006.51
2023-03-12T04:05:32.449Z,1006.50
2023-03-12T04:07:32.492Z,1006.56
2023-03-12T04:08:32.507Z,1006.57
2023-03-12T04:10:32.561Z,1006.54
2023-03-12T04:11:32.582Z,1006.57
2023-03-12T04:12:32.935Z,1006.60
2023-03-12T04:13:32.636Z,1006.56
2023-03-12T04:14:32.663Z,1006.56
2023-03-12T04:15:32.692Z,1006.53
2023-03-12T04:16:32.716Z,1006.50
2023-03-12T04:17:32.752Z,1006.46
2023-03-12T04:18:32.779Z,1006.45
2023-03-12T04:19:32.798Z,1006.45
2023-03-12T04:20:32.870Z,1006.43
2023-03-12T04:21:32.847Z,1006.42
2023-03-12T04:22:32.893Z,1006.43
2023-03-12T04:23:32.916Z,1006.41
2023-03-12T04:24:32.934Z,1006.37
2023-03-12T04:25:32.959Z,1006.36
2023-03-12T04:26:32.992Z,1006.38
2023-03-12T04:27:33.018Z,1006.40
2023-03-12T04:28:33.058Z,1006.44
2023-03-12T04:29:33.071Z,1006.37
2023-03-12T04:30:33.345Z,1006.39
2023-03-12T04:31:33.249Z,1006.35
2023-03-12T04:32:33.256Z,1006.35
2023-03-12T04:33:33.181Z,1006.38
2023-03-12T04:34:33.206Z,1006.40
2023-03-12T04:35:33.265Z,1006.37
2023-03-12T04:36:33.262Z,1006.35
2023-03-12T04:37:33.287Z,1006.34
2023-03-12T04:38:33.325Z,1006.37
2023-03-12T04:39:33.344Z,1006.34
2023-03-12T04:40:33.367Z,1006.32
2023-03-12T04:41:33.401Z,1006.34
2023-03-12T04:42:33.422Z,1006.36
2023-03-12T04:43:33.473Z,1006.34
2023-03-12T04:44:33.507Z,1006.33
2023-03-12T04:45:33.509Z,1006.32
2023-03-12T04:46:33.682Z,1006.30
2023-03-12T04:47:33.561Z,1006.28
2023-03-12T04:48:33.599Z,1006.31
2023-03-12T04:49:33.615Z,1006.30
2023-03-12T04:50:33.654Z,1006.28
2023-03-12T04:51:33.677Z,1006.28
2023-03-12T04:52:33.697Z,1006.28
2023-03-12T04:53:33.819Z,1006.29
2023-03-12T04:54:33.753Z,1006.24
2023-03-12T04:55:34.078Z,1006.28
2023-03-12T04:56:33.813Z,1006.29
2023-03-12T04:57:33.834Z,1006.33
2023-03-12T04:58:33.859Z,1006.33
2023-03-12T04:59:33.891Z,1006.33
2023-03-12T05:00:33.932Z,1006.36
2023-03-12T05:01:33.951Z,1006.32
2023-03-12T05:02:34.014Z,1006.25
2023-03-12T05:03:34.054Z,1006.25
2023-03-12T05:04:34.025Z,1006.19
2023-03-12T05:05:34.055Z,1006.14
2023-03-12T05:06:34.089Z,1006.15
2023-03-12T05:08:34.136Z,1006.08
2023-03-12T05:09:34.166Z,1006.03
2023-03-12T05:10:34.291Z,1005.94
2023-03-12T05:11:34.214Z,1005.94
2023-03-12T05:12:34.241Z,1005.99
2023-03-12T05:13:34.374Z,1006.01
2023-03-12T05:14:34.616Z,1005.97
2023-03-12T05:15:34.422Z,1005.97
2023-03-12T05:16:34.450Z,1005.93
2023-03-12T05:17:34.382Z,1005.84
2023-03-12T05:18:34.409Z,1005.83
2023-03-12T05:19:34.431Z,1005.83
2023-03-12T05:20:34.468Z,1005.80
2023-03-12T05:21:34.496Z,1005.82
2023-03-12T05:22:34.530Z,1005.79
2023-03-12T05:23:34.544Z,1005.81
2023-03-12T05:25:34.592Z,1005.84
2023-03-12T05:26:34.618Z,1005.84
2023-03-12T05:27:34.652Z,1005.85
2023-03-12T05:28:34.692Z,1005.84
2023-03-12T05:29:34.701Z,1005.83
2023-03-12T05:30:34.729Z,1005.79
2023-03-12T05:31:34.849Z,1005.78
2023-03-12T05:32:34.849Z,1005.73
2023-03-12T05:33:34.816Z,1005.73
2023-03-12T05:34:34.845Z,1005.67
2023-03-12T05:36:34.915Z,1005.66
2023-03-12T05:37:34.918Z,1005.64
2023-03-12T05:38:35.000Z,1005.67
2023-03-12T05:40:35.002Z,1005.66
2023-03-12T05:41:35.027Z,1005.66
2023-03-12T05:42:35.051Z,1005.67
2023-03-12T05:43:35.080Z,1005.68
2023-03-12T05:44:35.104Z,1005.66
2023-03-12T05:45:35.184Z,1005.61
2023-03-12T05:46:35.172Z,1005.62
2023-03-12T05:47:35.189Z,1005.68
2023-03-12T05:48:35.237Z,1005.70
2023-03-12T05:49:35.248Z,1005.65
2023-03-12T05:51:35.294Z,1005.53
2023-03-12T05:52:35.321Z,1005.54
2023-03-12T05:53:35.352Z,1005.56
2023-03-12T05:54:35.379Z,1005.50
2023-03-12T05:55:35.406Z,1005.45
2023-03-12T05:56:35.427Z,1005.40
2023-03-12T05:57:35.495Z,1005.40
2023-03-12T05:58:35.780Z,1005.39
2023-03-12T05:59:35.507Z,1005.35
2023-03-12T06:00:35.533Z,1005.40
2023-03-12T06:02:35.679Z,1005.43
2023-03-12T06:03:35.653Z,1005.41
2023-03-12T06:04:35.671Z,1005.38
2023-03-12T06:05:35.680Z,1005.33
2023-03-12T06:06:35.693Z,1005.32
2023-03-12T06:07:35.773Z,1005.27
2023-03-12T06:08:35.749Z,1005.27
2023-03-12T06:09:35.778Z,1005.25
2023-03-12T06:10:35.803Z,1005.26
2023-03-12T06:11:35.834Z,1005.26
2023-03-12T06:12:35.888Z,1005.26
2023-03-12T06:13:35.889Z,1005.28
2023-03-12T06:14:35.915Z,1005.24
2023-03-12T06:15:35.957Z,1005.27
2023-03-12T06:16:35.988Z,1005.30
2023-03-12T06:17:35.995Z,1005.29
2023-03-12T06:18:36.020Z,1005.29
2023-03-12T06:19:36.205Z,1005.30
2023-03-12T06:20:36.097Z,1005.29
2023-03-12T06:21:36.114Z,1005.24
2023-03-12T06:22:36.124Z,1005.23
2023-03-12T06:23:36.457Z,1005.20
2023-03-12T06:25:36.214Z,1005.25
2023-03-12T06:26:36.239Z,1005.24
2023-03-12T06:27:36.277Z,1005.30
2023-03-12T06:28:36.310Z,1005.32
2023-03-12T06:29:36.313Z,1005.32
2023-03-12T06:30:36.350Z,1005.31
2023-03-12T06:31:38.750Z,1005.33
2023-03-12T06:32:36.434Z,1005.35
2023-03-12T06:33:36.425Z,1005.34
2023-03-12T06:34:36.453Z,1005.35
2023-03-12T06:35:36.564Z,1005.39
2023-03-12T06:36:36.528Z,1005.36
2023-03-12T06:37:36.538Z,1005.37
2023-03-12T06:38:36.561Z,1005.34
2023-03-12T06:39:36.591Z,1005.34
2023-03-12T06:40:36.613Z,1005.32
2023-03-12T06:41:36.640Z,1005.31
2023-03-12T06:42:36.671Z,1005.30
2023-03-12T06:43:36.702Z,1005.27
2023-03-12T06:44:36.728Z,1005.24
2023-03-12T06:45:36.751Z,1005.24
2023-03-12T06:46:36.855Z,1005.25
2023-03-12T06:47:37.106Z,1005.18
2023-03-12T06:48:36.917Z,1005.18
2023-03-12T06:49:36.860Z,1005.16
2023-03-12T06:50:36.889Z,1005.21
2023-03-12T06:51:36.916Z,1005.20
2023-03-12T06:52:36.955Z,1005.24
2023-03-12T06:53:36.970Z,1005.24
2023-03-12T06:54:36.997Z,1005.26
2023-03-12T06:55:37.016Z,1005.29
2023-03-12T06:56:37.044Z,1005.29
2023-03-12T06:57:37.077Z,1005.32
2023-03-12T06:58:37.099Z,1005.37
2023-03-12T06:59:37.132Z,1005.37
2023-03-12T07:00:37.160Z,1005.32
2023-03-12T07:01:37.186Z,1005.34
2023-03-12T07:02:37.348Z,1005.30
2023-03-12T07:03:37.242Z,1005.33
2023-03-12T07:04:37.316Z,1005.31
2023-03-12T07:05:37.599Z,1005.31
2023-03-12T07:06:37.320Z,1005.29
2023-03-12T07:07:37.356Z,1005.29
2023-03-12T07:08:37.397Z,1005.33
2023-03-12T07:09:37.404Z,1005.39
2023-03-12T07:10:37.434Z,1005.39
2023-03-12T07:11:37.462Z,1005.37
2023-03-12T07:12:37.490Z,1005.37
2023-03-12T07:13:37.519Z,1005.34
2023-03-12T07:14:37.538Z,1005.27
2023-03-12T07:15:37.568Z,1005.30
2023-03-12T07:16:37.594Z,1005.30
2023-03-12T07:17:37.626Z,1005.25
2023-03-12T07:18:37.651Z,1005.23
2023-03-12T07:20:37.707Z,1005.20
2023-03-12T07:21:37.733Z,1005.18
2023-03-12T07:22:37.763Z,1005.23
2023-03-12T07:23:37.787Z,1005.25
2023-03-12T07:25:37.880Z,1005.26
2023-03-12T07:26:37.864Z,1005.29
2023-03-12T07:28:37.923Z,1005.29
2023-03-12T07:29:37.977Z,1005.30
2023-03-12T07:30:38.295Z,1005.33
2023-03-12T07:31:38.118Z,1005.32
2023-03-12T07:32:38.081Z,1005.32
2023-03-12T07:33:38.189Z,1005.25
2023-03-12T07:34:38.159Z,1005.22
2023-03-12T07:35:38.236Z,1005.24
2023-03-12T07:36:38.282Z,1005.20
2023-03-12T07:37:38.167Z,1005.18
2023-03-12T07:38:38.195Z,1005.20
2023-03-12T07:39:38.289Z,1005.20
2023-03-12T07:40:38.244Z,1005.19
2023-03-12T07:41:38.298Z,1005.18
2023-03-12T07:42:38.298Z,1005.21
2023-03-12T07:43:38.481Z,1005.14
2023-03-12T07:44:38.350Z,1005.17
2023-03-12T07:45:38.469Z,1005.17
2023-03-12T07:46:38.469Z,1005.15
2023-03-12T07:47:38.584Z,1005.20
2023-03-12T07:48:38.474Z,1005.19
2023-03-12T07:49:38.572Z,1005.18
2023-03-12T07:50:38.521Z,1005.18
2023-03-12T07:51:38.547Z,1005.18
2023-03-12T07:52:38.567Z,1005.19
2023-03-12T07:53:38.627Z,1005.18
2023-03-12T07:54:38.979Z,1005.16
2023-03-12T07:55:38.768Z,1005.15
2023-03-12T07:56:38.877Z,1005.16
2023-03-12T07:57:38.767Z,1005.16
2023-03-12T07:58:38.886Z,1005.15
2023-03-12T07:59:38.754Z,1005.16
2023-03-12T08:00:38.829Z,1005.18
2023-03-12T08:01:38.874Z,1005.15
2023-03-12T08:02:38.942Z,1005.18
2023-03-12T08:03:39.202Z,1005.17
2023-03-12T08:05:39.047Z,1005.21
2023-03-12T08:06:39.062Z,1005.21
2023-03-12T08:07:38.973Z,1005.20
2023-03-12T08:08:39.042Z,1005.19
2023-03-12T08:09:39.031Z,1005.19
2023-03-12T08:10:39.168Z,1005.23
2023-03-12T08:11:39.080Z,1005.22
2023-03-12T08:12:39.108Z,1005.24
2023-03-12T08:13:39.411Z,1005.20
2023-03-12T08:16:39.268Z,1005.22
2023-03-12T08:17:39.263Z,1005.21
2023-03-12T08:18:39.379Z,1005.22
2023-03-12T08:19:39.312Z,1005.23
2023-03-12T08:20:39.324Z,1005.21
2023-03-12T08:21:39.351Z,1005.22
2023-03-12T08:22:39.404Z,1005.25
2023-03-12T08:23:39.409Z,1005.26
2023-03-12T08:24:39.449Z,1005.31
2023-03-12T08:25:39.460Z,1005.28
2023-03-12T08:26:39.492Z,1005.30
2023-03-12T08:27:39.523Z,1005.29
2023-03-12T08:28:39.547Z,1005.34
2023-03-12T08:29:39.597Z,1005.35
2023-03-12T08:30:39.602Z,1005.34
2023-03-12T08:31:45.401Z,1005.34
2023-03-12T08:32:39.797Z,1005.37
2023-03-12T08:33:39.682Z,1005.32
2023-03-12T08:34:39.736Z,1005.36
2023-03-12T08:35:39.778Z,1005.34
2023-03-12T08:36:39.781Z,1005.34
2023-03-12T08:37:40.086Z,1005.38
2023-03-12T08:38:39.834Z,1005.32
2023-03-12T08:39:39.840Z,1005.31
2023-03-12T08:40:39.886Z,1005.29
2023-03-12T08:41:39.907Z,1005.25
2023-03-12T08:42:39.922Z,1005.24
2023-03-12T08:43:39.962Z,1005.23
2023-03-12T08:45:40.114Z,1005.17
2023-03-12T08:46:40.036Z,1005.12
2023-03-12T08:47:40.061Z,1005.13
2023-03-12T08:48:40.089Z,1005.15
2023-03-12T08:50:40.407Z,1005.12
2023-03-12T08:51:40.194Z,1005.13
2023-03-12T08:52:40.196Z,1005.15
2023-03-12T08:53:40.228Z,1005.15
2023-03-12T08:54:40.259Z,1005.17
2023-03-12T08:55:40.280Z,1005.12
2023-03-12T08:56:40.309Z,1005.08
2023-03-12T08:57:40.347Z,1005.07
2023-03-12T08:58:40.364Z,1005.05
2023-03-12T08:59:40.399Z,1005.03
2023-03-12T09:00:40.418Z,1005.02
2023-03-12T09:01:43.437Z,1005.08
2023-03-12T09:02:40.492Z,1005.04
2023-03-12T09:03:40.501Z,1005.08
2023-03-12T09:04:40.559Z,1005.10
2023-03-12T09:05:40.562Z,1005.10
2023-03-12T09:06:40.587Z,1005.07
2023-03-12T09:07:40.622Z,1005.12
2023-03-12T09:08:40.948Z,1005.09
2023-03-12T09:09:40.665Z,1005.07
2023-03-12T09:10:40.703Z,1005.09
2023-03-12T09:11:40.724Z,1005.09
2023-03-12T09:12:40.778Z,1005.12
2023-03-12T09:14:05.134Z,1005.15
2023-03-12T09:15:02.592Z,1005.16
2023-03-12T09:15:40.833Z,1005.18
2023-03-12T09:16:40.904Z,1005.16
2023-03-12T09:17:40.919Z,1005.18
2023-03-12T09:18:40.916Z,1005.13
2023-03-12T09:19:40.984Z,1005.15
2023-03-12T09:20:40.965Z,1005.16
2023-03-12T09:21:41.012Z,1005.19
2023-03-12T09:22:41.039Z,1005.19
2023-03-12T09:23:41.055Z,1005.21
2023-03-12T09:24:41.102Z,1005.23
2023-03-12T09:25:41.102Z,1005.21
2023-03-12T09:26:41.137Z,1005.18
2023-03-12T09:27:41.158Z,1005.17
2023-03-12T09:28:41.185Z,1005.19
2023-03-12T09:29:57.080Z,1005.24
2023-03-12T09:30:41.253Z,1005.21
2023-03-12T09:31:41.279Z,1005.22
2023-03-12T09:32:41.323Z,1005.25
2023-03-12T09:33:41.591Z,1005.23
2023-03-12T09:34:41.344Z,1005.26
2023-03-12T09:35:41.388Z,1005.25
2023-03-12T09:36:41.404Z,1005.25
2023-03-12T09:37:41.436Z,1005.27
2023-03-12T09:38:41.457Z,1005.25
2023-03-12T09:39:41.547Z,1005.26
2023-03-12T09:40:41.512Z,1005.25
2023-03-12T09:41:41.554Z,1005.27
2023-03-12T09:42:41.571Z,1005.25
2023-03-12T09:43:41.598Z,1005.26
2023-03-12T09:44:41.620Z,1005.24
2023-03-12T09:45:41.656Z,1005.24
2023-03-12T09:46:41.677Z,1005.22
2023-03-12T09:47:41.705Z,1005.23
2023-03-12T09:48:41.726Z,1005.23
2023-03-12T09:49:41.779Z,1005.22
2023-03-12T09:50:41.784Z,1005.23
2023-03-12T09:51:41.821Z,1005.22
2023-03-12T09:52:41.841Z,1005.22
2023-03-12T09:53:41.879Z,1005.24
2023-03-12T09:54:41.901Z,1005.25
2023-03-12T09:55:41.923Z,1005.24
2023-03-12T09:56:41.950Z,1005.20
2023-03-12T09:57:42.290Z,1005.27
2023-03-12T09:58:42.010Z,1005.25
2023-03-12T09:59:42.036Z,1005.26
2023-03-12T10:00:42.073Z,1005.28
2023-03-12T10:01:42.088Z,1005.24
2023-03-12T10:02:42.130Z,1005.21
2023-03-12T10:03:42.268Z,1005.24
2023-03-12T10:04:58.065Z,1005.24
2023-03-12T10:05:42.245Z,1005.25
2023-03-12T10:06:42.234Z,1005.29
2023-03-12T10:07:42.260Z,1005.27
2023-03-12T10:08:42.284Z,1005.26
2023-03-12T10:09:42.325Z,1005.24
2023-03-12T10:10:42.344Z,1005.25
2023-03-12T10:11:42.365Z,1005.21
2023-03-12T10:12:42.394Z,1005.17
2023-03-12T10:13:42.430Z,1005.17
2023-03-12T10:14:42.555Z,1005.21
2023-03-12T10:15:42.503Z,1005.21
2023-03-12T10:16:42.808Z,1005.19
2023-03-12T10:17:42.548Z,1005.13
2023-03-12T10:18:42.691Z,1005.16
2023-03-12T10:19:42.602Z,1005.19
2023-03-12T10:20:42.614Z,1005.21
2023-03-12T10:21:42.671Z,1005.23
2023-03-12T10:22:42.675Z,1005.22
2023-03-12T10:23:42.700Z,1005.23
2023-03-12T10:24:42.734Z,1005.24
2023-03-12T10:25:42.756Z,1005.24
2023-03-12T10:26:42.789Z,1005.26
2023-03-12T10:27:42.830Z,1005.29
2023-03-12T10:28:42.840Z,1005.25
2023-03-12T10:29:44.763Z,1005.25
2023-03-12T10:30:42.965Z,1005.28
2023-03-12T10:31:42.937Z,1005.23
2023-03-12T10:32:43.041Z,1005.29
2023-03-12T10:33:42.999Z,1005.28
2023-03-12T10:34:43.003Z,1005.27
2023-03-12T10:35:43.077Z,1005.26
2023-03-12T10:36:43.157Z,1005.24
2023-03-12T10:37:43.114Z,1005.26
2023-03-12T10:38:43.115Z,1005.20
2023-03-12T10:39:43.152Z,1005.26
2023-03-12T10:40:43.425Z,1005.26
2023-03-12T10:41:43.215Z,1005.27
2023-03-12T10:42:43.232Z,1005.30
2023-03-12T10:43:43.250Z,1005.30
2023-03-12T10:44:43.323Z,1005.36
2023-03-12T10:45:43.308Z,1005.30
2023-03-12T10:46:43.404Z,1005.37
2023-03-12T10:47:43.361Z,1005.34
2023-03-12T10:48:43.409Z,1005.36
2023-03-12T10:49:43.419Z,1005.37
2023-03-12T10:50:43.453Z,1005.39
2023-03-12T10:51:43.473Z,1005.39
2023-03-12T10:52:43.505Z,1005.41
2023-03-12T10:53:43.556Z,1005.43
2023-03-12T10:54:43.558Z,1005.41
2023-03-12T10:55:43.582Z,1005.45
2023-03-12T10:56:43.611Z,1005.47
2023-03-12T10:57:43.641Z,1005.44
2023-03-12T10:58:43.670Z,1005.45
2023-03-12T10:59:43.948Z,1005.44
2023-03-12T11:00:43.771Z,1005.46
2023-03-12T11:01:43.787Z,1005.41
2023-03-12T11:02:43.777Z,1005.41
2023-03-12T11:03:43.805Z,1005.40
2023-03-12T11:04:43.830Z,1005.39
2023-03-12T11:05:43.913Z,1005.37
2023-03-12T11:06:43.889Z,1005.38
2023-03-12T11:07:43.923Z,1005.38
2023-03-12T11:08:43.946Z,1005.38
2023-03-12T11:09:44.005Z,1005.39
2023-03-12T11:10:44.036Z,1005.37
2023-03-12T11:11:44.329Z,1005.39
2023-03-12T11:12:44.051Z,1005.37
2023-03-12T11:13:44.085Z,1005.39
2023-03-12T11:15:44.221Z,1005.35
2023-03-12T11:16:44.167Z,1005.35
2023-03-12T11:17:44.195Z,1005.36
2023-03-12T11:18:44.335Z,1005.35
2023-03-12T11:19:44.254Z,1005.40
2023-03-12T11:20:44.277Z,1005.37
2023-03-12T11:21:44.329Z,1005.36
2023-03-12T11:22:44.331Z,1005.34
2023-03-12T11:23:44.360Z,1005.30
2023-03-12T11:24:44.383Z,1005.26
2023-03-12T11:25:44.438Z,1005.25
2023-03-12T11:26:44.457Z,1005.25
2023-03-12T11:27:44.471Z,1005.21
2023-03-12T11:28:44.500Z,1005.24
2023-03-12T11:29:44.559Z,1005.16
2023-03-12T11:30:44.733Z,1005.20
2023-03-12T11:31:47.047Z,1005.26
2023-03-12T11:32:44.689Z,1005.25
2023-03-12T11:33:44.634Z,1005.27
2023-03-12T11:34:44.663Z,1005.22
2023-03-12T11:35:44.710Z,1005.32
2023-03-12T11:37:45.021Z,1005.25
2023-03-12T11:38:44.791Z,1005.25
2023-03-12T11:39:44.799Z,1005.33
2023-03-12T11:40:44.836Z,1005.35
2023-03-12T11:41:44.878Z,1005.32
2023-03-12T11:42:44.894Z,1005.25
2023-03-12T11:43:44.916Z,1005.29
2023-03-12T11:44:44.942Z,1005.26
2023-03-12T11:45:44.967Z,1005.32
2023-03-12T11:46:45.072Z,1005.35
2023-03-12T11:47:45.061Z,1005.30
2023-03-12T11:48:45.096Z,1005.33
2023-03-12T11:49:45.081Z,1005.31
2023-03-12T11:50:45.117Z,1005.30
2023-03-12T11:51:45.140Z,1005.34
2023-03-12T11:52:45.170Z,1005.26
2023-03-12T11:53:45.193Z,1005.27
2023-03-12T11:54:45.225Z,1005.26
2023-03-12T11:55:45.547Z,1005.34
2023-03-12T11:56:45.278Z,1005.27
2023-03-12T11:57:45.423Z,1005.32
2023-03-12T11:58:45.353Z,1005.36
2023-03-12T11:59:45.356Z,1005.36
2023-03-12T12:00:47.796Z,1005.38
2023-03-12T12:01:45.444Z,1005.43
2023-03-12T12:02:45.443Z,1005.43
2023-03-12T12:03:45.476Z,1005.41
2023-03-12T12:04:45.498Z,1005.45
2023-03-12T12:05:45.523Z,1005.44
2023-03-12T12:06:47.986Z,1005.41
2023-03-12T12:07:45.584Z,1005.45
2023-03-12T12:08:45.617Z,1005.48
2023-03-12T12:09:45.633Z,1005.43
2023-03-12T12:10:45.667Z,1005.48
2023-03-12T12:11:45.703Z,1005.44
2023-03-12T12:12:45.724Z,1005.45
2023-03-12T12:13:45.774Z,1005.35
2023-03-12T12:14:45.780Z,1005.25
2023-03-12T12:15:45.805Z,1005.25
2023-03-12T12:16:45.914Z,1005.17
2023-03-12T12:17:45.869Z,1005.20
2023-03-12T12:18:45.909Z,1005.17
2023-03-12T12:19:45.916Z,1005.17
2023-03-12T12:20:45.942Z,1005.17
2023-03-12T12:21:46.032Z,1005.08
2023-03-12T12:22:46.000Z,1005.11
2023-03-12T12:23:46.048Z,1005.11
2023-03-12T12:24:46.065Z,1005.09
2023-03-12T12:25:46.088Z,1005.18
2023-03-12T12:26:46.144Z,1005.22
2023-03-12T12:27:46.136Z,1005.24
2023-03-12T12:28:46.169Z,1005.25
2023-03-12T12:29:46.220Z,1005.25
2023-03-12T12:30:46.226Z,1005.31
2023-03-12T12:31:46.450Z,1005.30